Terminal Aerodrome Forecast
Issued by NWS

Home | Current Version | Previous Version | Graphics & Text | Print | Product List | Glossary On
Versions: 1 2 3 4 5 6 7 8 9 10 11 12 13 14 15
000
FTUS43 KMPX 192340
TAFRWF
TAF
KRWF 192340Z 2000/2024 07010KT P6SM OVC070
     FM201000 07008KT 6SM -RA BR SCT020 OVC040
     FM201400 07010G18KT 4SM RA BR OVC014
     FM201700 06011G20KT 3SM RA BR OVC008=

USA.gov is the U.S. government's official web portal to all federal, state and local government web resources and services.